Dalanzadgad, Mongolia
Current Conditions -  °F | °C
As of 3:00 PM on Friday 31 Oct 2014 (Local Time) from ZMUB Reporting Station
Scattered Clouds Scattered Clouds  
Wind Chill: 34°   Ceiling: Unl
Heat Index: 37°   Visibility: 6mi
Dew Point: 21°   Wind: 4mph
Humidity: 52%   Direction: NA
Pressure: 29.94"   Gusts: NA
Location:  43.58°N, 104.43°E
Report Text: ZMUB 310700Z VRB02MPS 9999 FEW030TCU SCT033 03/M06 Q1014 NOSIG RMK QFE653.4 52 MOP
Loading
Personal Weather Stations






























Interactive Weather Map
Tropical Storm Tracking
New forecast layout! Learn more

10-Day Weather Forecast

Advertisements
Track Severe Weather on mobile